createdAt,value
2018-05-27T00:02:01.587Z,100411.18
2018-05-27T00:21:43.136Z,100416.78
2018-05-27T00:41:25.442Z,100400.51
2018-05-27T01:01:07.638Z,100404.71
2018-05-27T01:20:49.698Z,100399.08
2018-05-27T01:40:32.013Z,100395.84
2018-05-27T02:00:15.093Z,100386.14
2018-05-27T02:19:57.023Z,100380.29
2018-05-27T02:39:39.045Z,100373.66
2018-05-27T02:59:21.224Z,100386.39
2018-05-27T03:19:03.368Z,100386.72
2018-05-27T03:38:45.553Z,100397.77
2018-05-27T03:58:28.074Z,100390.20
2018-05-27T04:18:11.089Z,100392.71
2018-05-27T04:37:53.524Z,100390.27
2018-05-27T04:57:35.902Z,100384.34
2018-05-27T05:17:19.942Z,100385.00
2018-05-27T05:37:02.289Z,100379.37
2018-05-27T05:56:45.013Z,100383.97
2018-05-27T06:16:27.917Z,100383.84
2018-05-27T06:36:10.937Z,100393.38
2018-05-27T06:55:53.341Z,100407.11
2018-05-27T07:15:36.029Z,100415.84
2018-05-27T07:35:18.825Z,100412.42
2018-05-27T07:55:01.914Z,100420.06
2018-05-27T08:14:44.237Z,100422.71
2018-05-27T08:34:28.609Z,100437.47
2018-05-27T08:54:11.774Z,100440.05
2018-05-27T09:13:54.013Z,100443.56
2018-05-27T09:33:36.971Z,100437.89
2018-05-27T09:53:19.965Z,100428.05
2018-05-27T10:13:02.513Z,100410.13
2018-05-27T10:32:44.626Z,100397.75
2018-05-27T10:52:27.537Z,100388.52
2018-05-27T11:12:10.196Z,100383.09
2018-05-27T11:31:52.436Z,100354.35
2018-05-27T11:51:35.004Z,100326.06
2018-05-27T12:11:18.033Z,100303.61
2018-05-27T12:31:01.374Z,100289.32
2018-05-27T12:50:50.897Z,100266.09
2018-05-27T13:10:33.682Z,100260.93
2018-05-27T13:30:15.868Z,100237.61
2018-05-27T13:49:58.885Z,100226.63
2018-05-27T14:09:41.115Z,100215.53
2018-05-27T14:29:25.315Z,100213.52
2018-05-27T14:31:53.210Z,100209.02
2018-05-27T14:34:21.604Z,100203.93
2018-05-27T14:36:50.585Z,100198.59
2018-05-27T14:39:18.738Z,100198.34
2018-05-27T14:41:46.737Z,100202.87
2018-05-27T14:44:15.890Z,100201.95
2018-05-27T14:46:46.046Z,100201.33
2018-05-27T14:49:13.981Z,100199.11
2018-05-27T14:51:42.022Z,100201.84
2018-05-27T14:54:09.988Z,100200.41
2018-05-27T14:56:37.862Z,100206.12
2018-05-27T14:59:05.829Z,100203.34
2018-05-27T15:01:33.709Z,100207.33
2018-05-27T15:04:02.620Z,100206.76
2018-05-27T15:06:30.366Z,100210.19
2018-05-27T15:08:58.234Z,100206.17
2018-05-27T15:11:26.213Z,100206.31
2018-05-27T15:13:54.079Z,100208.11
2018-05-27T15:16:22.376Z,100204.26
2018-05-27T15:18:50.968Z,100198.69
2018-05-27T15:21:19.265Z,100194.78
2018-05-27T15:23:46.991Z,100196.17
2018-05-27T15:26:14.770Z,100194.91
2018-05-27T15:28:42.632Z,100180.91
2018-05-27T15:31:10.502Z,100185.14
2018-05-27T15:33:38.380Z,100183.83
2018-05-27T15:36:06.247Z,100182.19
2018-05-27T15:38:33.984Z,100181.75
2018-05-27T15:41:01.799Z,100184.03
2018-05-27T15:43:29.672Z,100181.34
2018-05-27T15:45:57.403Z,100181.37
2018-05-27T15:48:25.353Z,100180.94
2018-05-27T15:50:53.130Z,100181.62
2018-05-27T15:53:20.839Z,100183.95
2018-05-27T15:55:48.591Z,100188.77
2018-05-27T15:58:16.471Z,100191.56
2018-05-27T16:00:44.860Z,100193.22
2018-05-27T16:03:12.625Z,100190.58
2018-05-27T16:05:40.498Z,100191.55
2018-05-27T16:08:08.360Z,100181.30
2018-05-27T16:10:36.527Z,100186.81
2018-05-27T16:13:04.635Z,100194.22
2018-05-27T16:15:32.523Z,100193.38
2018-05-27T16:18:00.268Z,100193.25
2018-05-27T16:20:28.638Z,100193.65
2018-05-27T16:22:56.441Z,100193.59
2018-05-27T16:25:24.703Z,100192.78
2018-05-27T16:27:52.469Z,100199.39
2018-05-27T16:30:20.335Z,100209.39
2018-05-27T16:32:48.210Z,100212.12
2018-05-27T16:35:15.959Z,100216.08
2018-05-27T16:37:43.846Z,100213.34
2018-05-27T16:40:11.617Z,100223.55
2018-05-27T16:42:39.490Z,100218.71
2018-05-27T16:45:07.446Z,100225.81
2018-05-27T16:47:35.126Z,100227.64
2018-05-27T16:50:02.900Z,100224.31
2018-05-27T16:52:30.612Z,100232.45
2018-05-27T16:54:58.432Z,100239.18
2018-05-27T16:57:32.633Z,100233.02
2018-05-27T17:00:00.311Z,100235.08
2018-05-27T17:02:28.090Z,100234.97
2018-05-27T17:04:55.957Z,100236.35
2018-05-27T17:07:23.841Z,100242.41
2018-05-27T17:09:51.698Z,100235.72
2018-05-27T17:12:19.580Z,100234.88
2018-05-27T17:14:47.304Z,100233.66
2018-05-27T17:17:15.108Z,100231.41
2018-05-27T17:19:42.982Z,100231.48
2018-05-27T17:22:10.863Z,100227.30
2018-05-27T17:24:38.692Z,100220.19
2018-05-27T17:27:06.591Z,100227.89
2018-05-27T17:29:34.331Z,100231.81
2018-05-27T17:32:02.235Z,100222.72
2018-05-27T17:34:30.105Z,100221.98
2018-05-27T17:36:57.874Z,100220.22
2018-05-27T17:39:25.745Z,100220.42
2018-05-27T17:41:53.622Z,100215.36
2018-05-27T17:44:21.496Z,100213.62
2018-05-27T17:46:49.980Z,100212.36
2018-05-27T17:49:17.748Z,100215.05
2018-05-27T17:51:45.610Z,100206.14
2018-05-27T17:54:13.484Z,100210.41
2018-05-27T17:56:41.351Z,100214.65
2018-05-27T17:59:09.127Z,100210.17
2018-05-27T18:01:37.507Z,100212.78
2018-05-27T18:04:05.426Z,100208.20
2018-05-27T18:06:33.455Z,100213.03
2018-05-27T18:09:01.327Z,100222.14
2018-05-27T18:11:29.099Z,100219.19
2018-05-27T18:13:56.968Z,100223.02
2018-05-27T18:16:24.732Z,100219.70
2018-05-27T18:18:52.421Z,100215.30
2018-05-27T18:21:20.270Z,100230.22
2018-05-27T18:23:48.059Z,100226.51
2018-05-27T18:26:15.913Z,100227.67
2018-05-27T18:28:43.786Z,100236.26
2018-05-27T18:31:11.562Z,100238.31
2018-05-27T18:33:39.427Z,100246.90
2018-05-27T18:36:07.208Z,100248.13
2018-05-27T18:38:35.042Z,100255.61
2018-05-27T18:41:02.776Z,100259.77
2018-05-27T18:43:30.511Z,100256.22
2018-05-27T18:45:58.270Z,100262.78
2018-05-27T18:48:26.004Z,100265.03
2018-05-27T18:50:53.909Z,100262.05
2018-05-27T18:53:21.784Z,100270.59
2018-05-27T18:55:49.535Z,100272.22
2018-05-27T18:58:17.343Z,100274.28
2018-05-27T19:00:45.094Z,100275.77
2018-05-27T19:03:12.957Z,100285.55
2018-05-27T19:05:40.907Z,100287.19
2018-05-27T19:08:08.698Z,100287.97
2018-05-27T19:10:36.540Z,100292.89
2018-05-27T19:13:04.359Z,100287.36
2018-05-27T19:15:32.126Z,100286.85
2018-05-27T19:17:59.990Z,100290.20
2018-05-27T19:20:27.943Z,100284.55
2018-05-27T19:22:56.319Z,100288.16
2018-05-27T19:25:24.216Z,100295.02
2018-05-27T19:27:51.954Z,100292.95
2018-05-27T19:30:19.869Z,100300.22
2018-05-27T19:32:47.622Z,100292.03
2018-05-27T19:35:15.394Z,100298.48
2018-05-27T19:37:43.259Z,100296.58
2018-05-27T19:40:11.159Z,100303.69
2018-05-27T19:42:39.012Z,100309.31
2018-05-27T19:45:06.879Z,100311.61
2018-05-27T19:47:34.743Z,100316.04
2018-05-27T19:50:02.611Z,100314.62
2018-05-27T19:52:30.285Z,100314.08
2018-05-27T19:54:58.198Z,100317.67
2018-05-27T19:57:25.971Z,100316.45
2018-05-27T19:59:53.870Z,100317.38
2018-05-27T20:02:21.667Z,100316.69
2018-05-27T20:04:49.540Z,100316.16
2018-05-27T20:07:18.132Z,100324.67
2018-05-27T20:09:45.994Z,100315.12
2018-05-27T20:12:13.970Z,100319.22
2018-05-27T20:14:41.766Z,100322.41
2018-05-27T20:17:09.521Z,100324.33
2018-05-27T20:19:37.374Z,100329.12
2018-05-27T20:22:05.151Z,100327.02
2018-05-27T20:24:32.917Z,100322.44
2018-05-27T20:27:00.691Z,100328.93
2018-05-27T20:29:28.558Z,100329.10
2018-05-27T20:31:56.425Z,100329.55
2018-05-27T20:34:24.295Z,100331.02
2018-05-27T20:36:52.171Z,100335.12
2018-05-27T20:39:20.069Z,100327.17
2018-05-27T20:41:47.798Z,100332.47
2018-05-27T20:44:15.605Z,100326.97
2018-05-27T20:46:43.416Z,100328.32
2018-05-27T20:49:11.238Z,100328.20
2018-05-27T20:51:39.096Z,100321.61
2018-05-27T20:54:06.861Z,100327.29
2018-05-27T20:56:34.744Z,100330.47
2018-05-27T20:59:02.507Z,100325.46
2018-05-27T21:01:30.369Z,100329.59
2018-05-27T21:03:58.276Z,100328.20
2018-05-27T21:06:26.131Z,100326.44
2018-05-27T21:08:53.884Z,100334.08
2018-05-27T21:11:21.655Z,100333.50
2018-05-27T21:13:49.426Z,100337.72
2018-05-27T21:16:17.260Z,100348.05
2018-05-27T21:18:45.165Z,100349.45
2018-05-27T21:21:13.026Z,100352.79
2018-05-27T21:23:40.902Z,100349.95
2018-05-27T21:26:08.890Z,100357.37
2018-05-27T21:28:36.772Z,100354.19
2018-05-27T21:31:04.627Z,100361.91
2018-05-27T21:33:32.405Z,100361.69
2018-05-27T21:36:00.139Z,100369.31
2018-05-27T21:38:27.931Z,100362.68
2018-05-27T21:40:55.711Z,100357.72
2018-05-27T21:43:23.574Z,100352.23
2018-05-27T21:45:51.440Z,100352.47
2018-05-27T21:48:19.320Z,100349.28
2018-05-27T21:50:47.194Z,100348.55
2018-05-27T21:53:15.074Z,100355.47
2018-05-27T21:55:42.925Z,100355.59
2018-05-27T21:58:10.793Z,100347.64
2018-05-27T22:00:38.665Z,100348.18
2018-05-27T22:03:06.574Z,100351.10
2018-05-27T22:05:34.408Z,100353.31
2018-05-27T22:08:02.291Z,100351.22
2018-05-27T22:10:30.162Z,100353.94
2018-05-27T22:12:57.921Z,100360.55
2018-05-27T22:15:25.792Z,100356.33
2018-05-27T22:17:53.576Z,100363.72
2018-05-27T22:20:21.436Z,100357.19
2018-05-27T22:22:49.310Z,100362.73
2018-05-27T22:25:17.194Z,100360.36
2018-05-27T22:27:45.069Z,100360.05
2018-05-27T22:30:12.931Z,100366.39
2018-05-27T22:32:40.797Z,100363.62
2018-05-27T22:35:08.663Z,100363.48
2018-05-27T22:37:37.042Z,100356.02
2018-05-27T22:40:05.219Z,100360.11
2018-05-27T22:42:32.853Z,100362.08
2018-05-27T22:45:00.591Z,100361.83
2018-05-27T22:47:28.392Z,100357.00
2018-05-27T22:49:56.097Z,100363.39
2018-05-27T22:52:23.949Z,100358.73
2018-05-27T22:54:52.008Z,100357.31
2018-05-27T22:57:19.805Z,100362.67
2018-05-27T22:59:47.679Z,100366.90
2018-05-27T23:02:15.500Z,100364.12
2018-05-27T23:04:43.224Z,100362.09
2018-05-27T23:07:10.878Z,100348.31
2018-05-27T23:09:38.768Z,100357.22
2018-05-27T23:12:06.532Z,100356.13
2018-05-27T23:34:42.681Z,100343.46
2018-05-27T23:54:27.272Z,100343.23
